sensor_id;sensor_type;location;lat;lon;timestamp;P1;durP1;ratioP1;P2;durP2;ratioP2
11924;SDS011;6022;48.768;18.608;2023-05-02T00:02:27;1.80;;;1.10;;
11924;SDS011;6022;48.768;18.608;2023-05-02T00:04:54;1.30;;;1.20;;
11924;SDS011;6022;48.768;18.608;2023-05-02T00:07:22;1.97;;;1.27;;
11924;SDS011;6022;48.768;18.608;2023-05-02T00:09:49;1.37;;;1.27;;
11924;SDS011;6022;48.768;18.608;2023-05-02T00:12:16;1.23;;;1.07;;
11924;SDS011;6022;48.768;18.608;2023-05-02T00:14:43;1.60;;;1.27;;
11924;SDS011;6022;48.768;18.608;2023-05-02T00:17:17;1.30;;;1.23;;
11924;SDS011;6022;48.768;18.608;2023-05-02T00:19:46;1.27;;;1.13;;
11924;SDS011;6022;48.768;18.608;2023-05-02T00:22:13;1.63;;;1.47;;
11924;SDS011;6022;48.768;18.608;2023-05-02T00:24:40;1.43;;;0.90;;
11924;SDS011;6022;48.768;18.608;2023-05-02T00:27:07;1.67;;;1.57;;
11924;SDS011;6022;48.768;18.608;2023-05-02T00:29:37;2.07;;;1.90;;
11924;SDS011;6022;48.768;18.608;2023-05-02T00:32:04;3.10;;;1.80;;
11924;SDS011;6022;48.768;18.608;2023-05-02T00:34:32;1.67;;;1.43;;
11924;SDS011;6022;48.768;18.608;2023-05-02T00:36:59;1.87;;;1.60;;
11924;SDS011;6022;48.768;18.608;2023-05-02T00:39:26;0.73;;;0.73;;
11924;SDS011;6022;48.768;18.608;2023-05-02T00:41:57;2.00;;;1.30;;
11924;SDS011;6022;48.768;18.608;2023-05-02T00:44:24;1.00;;;0.80;;
11924;SDS011;6022;48.768;18.608;2023-05-02T00:46:52;1.93;;;1.33;;
11924;SDS011;6022;48.768;18.608;2023-05-02T00:49:21;1.47;;;1.37;;
11924;SDS011;6022;48.768;18.608;2023-05-02T00:51:48;2.27;;;1.63;;
11924;SDS011;6022;48.768;18.608;2023-05-02T00:54:16;1.17;;;1.00;;
11924;SDS011;6022;48.768;18.608;2023-05-02T00:56:43;1.93;;;1.43;;
11924;SDS011;6022;48.768;18.608;2023-05-02T00:59:11;2.07;;;1.30;;
11924;SDS011;6022;48.768;18.608;2023-05-02T01:07:39;1.27;;;1.17;;
11924;SDS011;6022;48.768;18.608;2023-05-02T01:10:50;1.33;;;0.93;;
11924;SDS011;6022;48.768;18.608;2023-05-02T01:13:31;1.30;;;1.20;;
11924;SDS011;6022;48.768;18.608;2023-05-02T01:16:01;1.00;;;1.00;;
11924;SDS011;6022;48.768;18.608;2023-05-02T01:18:33;1.57;;;1.27;;
11924;SDS011;6022;48.768;18.608;2023-05-02T01:21:07;1.83;;;1.70;;
11924;SDS011;6022;48.768;18.608;2023-05-02T01:26:55;1.20;;;1.10;;
11924;SDS011;6022;48.768;18.608;2023-05-02T01:29:31;1.73;;;1.07;;
11924;SDS011;6022;48.768;18.608;2023-05-02T01:32:00;1.10;;;1.00;;
11924;SDS011;6022;48.768;18.608;2023-05-02T01:34:30;0.60;;;0.60;;
11924;SDS011;6022;48.768;18.608;2023-05-02T01:37:02;1.30;;;1.20;;
11924;SDS011;6022;48.768;18.608;2023-05-02T01:39:33;2.33;;;1.50;;
11924;SDS011;6022;48.768;18.608;2023-05-02T01:42:05;1.80;;;1.23;;
11924;SDS011;6022;48.768;18.608;2023-05-02T01:44:32;2.63;;;1.43;;
11924;SDS011;6022;48.768;18.608;2023-05-02T01:47:03;1.17;;;0.93;;
11924;SDS011;6022;48.768;18.608;2023-05-02T01:49:33;1.03;;;0.87;;
11924;SDS011;6022;48.768;18.608;2023-05-02T01:52:04;0.67;;;0.60;;
11924;SDS011;6022;48.768;18.608;2023-05-02T01:54:36;3.37;;;1.67;;
11924;SDS011;6022;48.768;18.608;2023-05-02T01:57:06;2.90;;;1.20;;
11924;SDS011;6022;48.768;18.608;2023-05-02T01:59:37;1.07;;;0.97;;
11924;SDS011;6022;48.768;18.608;2023-05-02T02:02:07;1.77;;;0.90;;
11924;SDS011;6022;48.768;18.608;2023-05-02T02:04:39;0.53;;;0.53;;
11924;SDS011;6022;48.768;18.608;2023-05-02T02:07:08;1.07;;;0.97;;
11924;SDS011;6022;48.768;18.608;2023-05-02T02:09:39;0.80;;;0.80;;
11924;SDS011;6022;48.768;18.608;2023-05-02T02:14:56;0.97;;;0.77;;
11924;SDS011;6022;48.768;18.608;2023-05-02T02:17:39;1.33;;;1.23;;
11924;SDS011;6022;48.768;18.608;2023-05-02T02:20:11;1.37;;;1.00;;
11924;SDS011;6022;48.768;18.608;2023-05-02T02:22:41;1.27;;;1.00;;
11924;SDS011;6022;48.768;18.608;2023-05-02T02:25:11;2.13;;;0.87;;
11924;SDS011;6022;48.768;18.608;2023-05-02T02:27:41;0.50;;;0.50;;
11924;SDS011;6022;48.768;18.608;2023-05-02T02:30:11;0.60;;;0.60;;
11924;SDS011;6022;48.768;18.608;2023-05-02T02:32:38;1.13;;;0.70;;
11924;SDS011;6022;48.768;18.608;2023-05-02T02:35:06;0.77;;;0.63;;
11924;SDS011;6022;48.768;18.608;2023-05-02T02:37:36;2.17;;;1.40;;
11924;SDS011;6022;48.768;18.608;2023-05-02T02:40:30;1.03;;;0.93;;
11924;SDS011;6022;48.768;18.608;2023-05-02T02:43:11;0.70;;;0.70;;
11924;SDS011;6022;48.768;18.608;2023-05-02T02:49:26;0.80;;;0.70;;
11924;SDS011;6022;48.768;18.608;2023-05-02T02:52:27;0.47;;;0.47;;
11924;SDS011;6022;48.768;18.608;2023-05-02T03:01:05;1.13;;;0.87;;
11924;SDS011;6022;48.768;18.608;2023-05-02T03:03:40;0.70;;;0.70;;
11924;SDS011;6022;48.768;18.608;2023-05-02T03:06:09;0.70;;;0.70;;
11924;SDS011;6022;48.768;18.608;2023-05-02T03:08:38;0.63;;;0.63;;
11924;SDS011;6022;48.768;18.608;2023-05-02T03:11:09;1.00;;;0.80;;
11924;SDS011;6022;48.768;18.608;2023-05-02T03:13:36;0.70;;;0.57;;
11924;SDS011;6022;48.768;18.608;2023-05-02T03:19:05;0.80;;;0.80;;
11924;SDS011;6022;48.768;18.608;2023-05-02T03:21:33;0.73;;;0.73;;
11924;SDS011;6022;48.768;18.608;2023-05-02T03:24:02;0.50;;;0.50;;
11924;SDS011;6022;48.768;18.608;2023-05-02T03:26:30;0.50;;;0.50;;
11924;SDS011;6022;48.768;18.608;2023-05-02T03:28:57;2.17;;;0.80;;
11924;SDS011;6022;48.768;18.608;2023-05-02T03:31:24;0.97;;;0.73;;
11924;SDS011;6022;48.768;18.608;2023-05-02T03:33:52;1.63;;;1.33;;
11924;SDS011;6022;48.768;18.608;2023-05-02T03:36:19;1.93;;;1.33;;
11924;SDS011;6022;48.768;18.608;2023-05-02T03:38:46;2.47;;;1.07;;
11924;SDS011;6022;48.768;18.608;2023-05-02T03:41:14;0.63;;;0.63;;
11924;SDS011;6022;48.768;18.608;2023-05-02T03:43:41;1.07;;;0.70;;
11924;SDS011;6022;48.768;18.608;2023-05-02T03:46:08;0.83;;;0.80;;
11924;SDS011;6022;48.768;18.608;2023-05-02T03:48:37;2.20;;;1.53;;
11924;SDS011;6022;48.768;18.608;2023-05-02T03:51:05;1.07;;;0.83;;
11924;SDS011;6022;48.768;18.608;2023-05-02T03:53:35;0.60;;;0.53;;
11924;SDS011;6022;48.768;18.608;2023-05-02T03:56:03;0.63;;;0.60;;
11924;SDS011;6022;48.768;18.608;2023-05-02T03:58:30;2.13;;;0.77;;
11924;SDS011;6022;48.768;18.608;2023-05-02T04:00:58;0.97;;;0.83;;
11924;SDS011;6022;48.768;18.608;2023-05-02T04:03:26;1.57;;;1.07;;
11924;SDS011;6022;48.768;18.608;2023-05-02T04:05:55;2.63;;;1.30;;
11924;SDS011;6022;48.768;18.608;2023-05-02T04:08:22;1.13;;;1.03;;
11924;SDS011;6022;48.768;18.608;2023-05-02T04:10:50;1.10;;;1.00;;
11924;SDS011;6022;48.768;18.608;2023-05-02T04:13:18;9.67;;;1.07;;
11924;SDS011;6022;48.768;18.608;2023-05-02T04:15:45;0.90;;;0.80;;
11924;SDS011;6022;48.768;18.608;2023-05-02T04:18:12;3.20;;;1.27;;
11924;SDS011;6022;48.768;18.608;2023-05-02T04:20:41;3.17;;;1.07;;
11924;SDS011;6022;48.768;18.608;2023-05-02T04:23:10;1.00;;;0.93;;
11924;SDS011;6022;48.768;18.608;2023-05-02T04:25:37;0.37;;;0.37;;
11924;SDS011;6022;48.768;18.608;2023-05-02T04:28:05;0.50;;;0.50;;
11924;SDS011;6022;48.768;18.608;2023-05-02T04:30:32;3.10;;;0.73;;
11924;SDS011;6022;48.768;18.608;2023-05-02T04:32:59;0.80;;;0.80;;
11924;SDS011;6022;48.768;18.608;2023-05-02T04:35:27;0.70;;;0.47;;
11924;SDS011;6022;48.768;18.608;2023-05-02T04:37:54;0.97;;;0.97;;
11924;SDS011;6022;48.768;18.608;2023-05-02T04:40:22;2.43;;;1.70;;
11924;SDS011;6022;48.768;18.608;2023-05-02T04:42:49;0.63;;;0.63;;
11924;SDS011;6022;48.768;18.608;2023-05-02T04:45:16;0.80;;;0.80;;
11924;SDS011;6022;48.768;18.608;2023-05-02T04:47:44;0.73;;;0.60;;
11924;SDS011;6022;48.768;18.608;2023-05-02T04:50:11;1.23;;;0.83;;
11924;SDS011;6022;48.768;18.608;2023-05-02T04:52:39;3.47;;;0.83;;
11924;SDS011;6022;48.768;18.608;2023-05-02T04:55:07;0.73;;;0.73;;
11924;SDS011;6022;48.768;18.608;2023-05-02T04:57:34;2.63;;;1.23;;
11924;SDS011;6022;48.768;18.608;2023-05-02T05:00:02;0.77;;;0.70;;
11924;SDS011;6022;48.768;18.608;2023-05-02T05:02:29;1.07;;;0.70;;
11924;SDS011;6022;48.768;18.608;2023-05-02T05:04:57;1.83;;;1.20;;
11924;SDS011;6022;48.768;18.608;2023-05-02T05:07:27;1.57;;;1.23;;
11924;SDS011;6022;48.768;18.608;2023-05-02T05:09:54;2.47;;;0.90;;
11924;SDS011;6022;48.768;18.608;2023-05-02T05:12:21;1.07;;;0.90;;
11924;SDS011;6022;48.768;18.608;2023-05-02T05:14:48;2.43;;;0.73;;
11924;SDS011;6022;48.768;18.608;2023-05-02T05:17:16;0.80;;;0.80;;
11924;SDS011;6022;48.768;18.608;2023-05-02T05:19:45;2.30;;;1.50;;
11924;SDS011;6022;48.768;18.608;2023-05-02T05:22:12;1.40;;;1.27;;
11924;SDS011;6022;48.768;18.608;2023-05-02T05:24:39;0.67;;;0.67;;
11924;SDS011;6022;48.768;18.608;2023-05-02T05:27:06;1.73;;;1.00;;
11924;SDS011;6022;48.768;18.608;2023-05-02T05:29:33;1.13;;;1.03;;
11924;SDS011;6022;48.768;18.608;2023-05-02T05:32:01;2.23;;;1.27;;
11924;SDS011;6022;48.768;18.608;2023-05-02T05:34:28;3.03;;;1.87;;
11924;SDS011;6022;48.768;18.608;2023-05-02T05:36:55;3.27;;;1.50;;
11924;SDS011;6022;48.768;18.608;2023-05-02T05:39:22;1.73;;;1.20;;
11924;SDS011;6022;48.768;18.608;2023-05-02T05:41:50;2.20;;;1.70;;
11924;SDS011;6022;48.768;18.608;2023-05-02T05:44:18;2.43;;;1.80;;
11924;SDS011;6022;48.768;18.608;2023-05-02T05:46:47;1.00;;;1.00;;
11924;SDS011;6022;48.768;18.608;2023-05-02T05:49:15;2.07;;;1.00;;
11924;SDS011;6022;48.768;18.608;2023-05-02T05:51:42;2.10;;;1.00;;
11924;SDS011;6022;48.768;18.608;2023-05-02T05:54:10;3.70;;;1.67;;
11924;SDS011;6022;48.768;18.608;2023-05-02T05:56:37;4.10;;;1.67;;
11924;SDS011;6022;48.768;18.608;2023-05-02T05:59:04;1.93;;;1.07;;
11924;SDS011;6022;48.768;18.608;2023-05-02T06:01:31;2.70;;;1.60;;
11924;SDS011;6022;48.768;18.608;2023-05-02T06:03:59;1.43;;;1.33;;
11924;SDS011;6022;48.768;18.608;2023-05-02T06:06:28;14.00;;;7.70;;
11924;SDS011;6022;48.768;18.608;2023-05-02T06:08:57;1.77;;;1.67;;
11924;SDS011;6022;48.768;18.608;2023-05-02T06:11:24;1.83;;;1.73;;
11924;SDS011;6022;48.768;18.608;2023-05-02T06:13:51;2.13;;;1.67;;
11924;SDS011;6022;48.768;18.608;2023-05-02T06:16:19;1.93;;;1.73;;
11924;SDS011;6022;48.768;18.608;2023-05-02T06:18:46;1.50;;;1.40;;
11924;SDS011;6022;48.768;18.608;2023-05-02T06:21:20;2.10;;;1.70;;
11924;SDS011;6022;48.768;18.608;2023-05-02T06:23:47;2.40;;;1.80;;
11924;SDS011;6022;48.768;18.608;2023-05-02T06:26:14;1.20;;;1.10;;
11924;SDS011;6022;48.768;18.608;2023-05-02T06:28:41;1.30;;;1.00;;
11924;SDS011;6022;48.768;18.608;2023-05-02T06:31:09;1.23;;;1.13;;
11924;SDS011;6022;48.768;18.608;2023-05-02T06:33:36;2.27;;;1.10;;
11924;SDS011;6022;48.768;18.608;2023-05-02T06:36:04;2.13;;;1.07;;
11924;SDS011;6022;48.768;18.608;2023-05-02T06:38:37;3.20;;;0.97;;
11924;SDS011;6022;48.768;18.608;2023-05-02T06:41:17;1.00;;;0.70;;
11924;SDS011;6022;48.768;18.608;2023-05-02T06:43:46;1.50;;;1.40;;
11924;SDS011;6022;48.768;18.608;2023-05-02T06:46:13;2.00;;;1.00;;
11924;SDS011;6022;48.768;18.608;2023-05-02T06:48:40;1.40;;;1.30;;
11924;SDS011;6022;48.768;18.608;2023-05-02T06:51:10;1.30;;;1.20;;
11924;SDS011;6022;48.768;18.608;2023-05-02T06:53:53;1.67;;;1.33;;
11924;SDS011;6022;48.768;18.608;2023-05-02T06:56:21;1.20;;;0.93;;
11924;SDS011;6022;48.768;18.608;2023-05-02T06:58:51;1.47;;;1.37;;
11924;SDS011;6022;48.768;18.608;2023-05-02T07:01:18;1.27;;;1.13;;
11924;SDS011;6022;48.768;18.608;2023-05-02T07:03:48;3.83;;;2.13;;
11924;SDS011;6022;48.768;18.608;2023-05-02T07:06:17;1.53;;;1.43;;
11924;SDS011;6022;48.768;18.608;2023-05-02T07:08:44;2.53;;;1.50;;
11924;SDS011;6022;48.768;18.608;2023-05-02T07:11:11;1.60;;;1.20;;
11924;SDS011;6022;48.768;18.608;2023-05-02T07:13:38;2.50;;;1.07;;
11924;SDS011;6022;48.768;18.608;2023-05-02T07:16:20;1.50;;;1.40;;
11924;SDS011;6022;48.768;18.608;2023-05-02T07:18:48;2.20;;;1.20;;
11924;SDS011;6022;48.768;18.608;2023-05-02T07:21:16;1.00;;;0.83;;
11924;SDS011;6022;48.768;18.608;2023-05-02T07:23:45;1.17;;;1.07;;
11924;SDS011;6022;48.768;18.608;2023-05-02T07:26:12;1.60;;;1.50;;
11924;SDS011;6022;48.768;18.608;2023-05-02T07:28:42;1.40;;;1.20;;
11924;SDS011;6022;48.768;18.608;2023-05-02T07:31:10;3.13;;;1.37;;
11924;SDS011;6022;48.768;18.608;2023-05-02T07:33:47;1.73;;;1.63;;
11924;SDS011;6022;48.768;18.608;2023-05-02T07:36:24;1.43;;;1.33;;
11924;SDS011;6022;48.768;18.608;2023-05-02T07:38:54;0.90;;;0.90;;
11924;SDS011;6022;48.768;18.608;2023-05-02T07:41:21;1.17;;;1.07;;
11924;SDS011;6022;48.768;18.608;2023-05-02T07:43:48;2.30;;;1.00;;
11924;SDS011;6022;48.768;18.608;2023-05-02T07:46:19;2.47;;;1.13;;
11924;SDS011;6022;48.768;18.608;2023-05-02T07:48:58;1.40;;;1.30;;
11924;SDS011;6022;48.768;18.608;2023-05-02T07:51:57;2.80;;;1.67;;
11924;SDS011;6022;48.768;18.608;2023-05-02T07:54:24;1.43;;;1.30;;
11924;SDS011;6022;48.768;18.608;2023-05-02T07:56:52;4.03;;;1.10;;
11924;SDS011;6022;48.768;18.608;2023-05-02T07:59:29;1.57;;;1.47;;
11924;SDS011;6022;48.768;18.608;2023-05-02T08:01:58;1.27;;;1.20;;
11924;SDS011;6022;48.768;18.608;2023-05-02T08:04:30;2.77;;;0.93;;
11924;SDS011;6022;48.768;18.608;2023-05-02T08:07:00;1.73;;;1.17;;
11924;SDS011;6022;48.768;18.608;2023-05-02T08:09:28;1.40;;;1.30;;
11924;SDS011;6022;48.768;18.608;2023-05-02T08:12:00;1.50;;;1.23;;
11924;SDS011;6022;48.768;18.608;2023-05-02T08:14:28;1.83;;;1.20;;
11924;SDS011;6022;48.768;18.608;2023-05-02T08:17:00;1.23;;;0.90;;
11924;SDS011;6022;48.768;18.608;2023-05-02T08:19:27;1.63;;;1.20;;
11924;SDS011;6022;48.768;18.608;2023-05-02T08:21:55;1.40;;;1.33;;
11924;SDS011;6022;48.768;18.608;2023-05-02T08:24:22;2.50;;;1.00;;
11924;SDS011;6022;48.768;18.608;2023-05-02T08:26:50;1.37;;;1.27;;
11924;SDS011;6022;48.768;18.608;2023-05-02T08:29:17;2.00;;;1.23;;
11924;SDS011;6022;48.768;18.608;2023-05-02T08:31:44;2.27;;;1.67;;
11924;SDS011;6022;48.768;18.608;2023-05-02T08:34:19;1.50;;;1.40;;
11924;SDS011;6022;48.768;18.608;2023-05-02T08:36:47;2.40;;;1.13;;
11924;SDS011;6022;48.768;18.608;2023-05-02T08:39:23;1.67;;;1.30;;
11924;SDS011;6022;48.768;18.608;2023-05-02T08:41:54;2.97;;;1.93;;
11924;SDS011;6022;48.768;18.608;2023-05-02T08:44:21;1.60;;;1.50;;
11924;SDS011;6022;48.768;18.608;2023-05-02T08:46:48;2.87;;;0.90;;
11924;SDS011;6022;48.768;18.608;2023-05-02T08:49:18;2.70;;;1.40;;
11924;SDS011;6022;48.768;18.608;2023-05-02T08:51:48;1.63;;;1.27;;
11924;SDS011;6022;48.768;18.608;2023-05-02T08:54:17;1.17;;;1.10;;
11924;SDS011;6022;48.768;18.608;2023-05-02T08:56:57;1.73;;;1.63;;
11924;SDS011;6022;48.768;18.608;2023-05-02T08:59:25;2.70;;;1.50;;
11924;SDS011;6022;48.768;18.608;2023-05-02T09:01:58;1.53;;;1.27;;
11924;SDS011;6022;48.768;18.608;2023-05-02T09:04:59;1.47;;;1.37;;
11924;SDS011;6022;48.768;18.608;2023-05-02T09:07:48;2.57;;;2.37;;
11924;SDS011;6022;48.768;18.608;2023-05-02T09:10:16;1.07;;;1.03;;
11924;SDS011;6022;48.768;18.608;2023-05-02T09:12:44;1.50;;;1.40;;
11924;SDS011;6022;48.768;18.608;2023-05-02T09:15:12;1.03;;;1.03;;
11924;SDS011;6022;48.768;18.608;2023-05-02T09:17:46;2.43;;;1.67;;
11924;SDS011;6022;48.768;18.608;2023-05-02T09:20:15;1.63;;;1.53;;
11924;SDS011;6022;48.768;18.608;2023-05-02T09:22:49;1.90;;;1.50;;
11924;SDS011;6022;48.768;18.608;2023-05-02T09:25:18;1.20;;;1.10;;
11924;SDS011;6022;48.768;18.608;2023-05-02T09:27:48;2.90;;;1.73;;
11924;SDS011;6022;48.768;18.608;2023-05-02T09:30:23;2.60;;;1.77;;
11924;SDS011;6022;48.768;18.608;2023-05-02T09:32:53;1.20;;;1.10;;
11924;SDS011;6022;48.768;18.608;2023-05-02T09:35:24;1.70;;;1.50;;
11924;SDS011;6022;48.768;18.608;2023-05-02T09:37:54;1.20;;;1.13;;
11924;SDS011;6022;48.768;18.608;2023-05-02T09:40:23;1.53;;;1.33;;
11924;SDS011;6022;48.768;18.608;2023-05-02T09:42:52;1.33;;;1.17;;
11924;SDS011;6022;48.768;18.608;2023-05-02T09:45:22;1.00;;;1.00;;
11924;SDS011;6022;48.768;18.608;2023-05-02T09:47:51;1.73;;;1.33;;
11924;SDS011;6022;48.768;18.608;2023-05-02T09:50:37;1.40;;;1.30;;
11924;SDS011;6022;48.768;18.608;2023-05-02T09:53:05;1.63;;;1.53;;
11924;SDS011;6022;48.768;18.608;2023-05-02T09:55:36;1.93;;;1.57;;
11924;SDS011;6022;48.768;18.608;2023-05-02T09:58:35;1.80;;;1.67;;
11924;SDS011;6022;48.768;18.608;2023-05-02T10:01:03;1.70;;;1.60;;
11924;SDS011;6022;48.768;18.608;2023-05-02T10:03:30;1.77;;;1.67;;
11924;SDS011;6022;48.768;18.608;2023-05-02T10:06:03;2.83;;;1.80;;
11924;SDS011;6022;48.768;18.608;2023-05-02T10:08:37;1.77;;;1.67;;
11924;SDS011;6022;48.768;18.608;2023-05-02T10:11:06;1.70;;;1.47;;
11924;SDS011;6022;48.768;18.608;2023-05-02T10:13:35;1.77;;;1.67;;
11924;SDS011;6022;48.768;18.608;2023-05-02T10:16:06;3.73;;;1.43;;
11924;SDS011;6022;48.768;18.608;2023-05-02T10:18:38;3.80;;;1.50;;
11924;SDS011;6022;48.768;18.608;2023-05-02T10:21:23;4.10;;;1.50;;
11924;SDS011;6022;48.768;18.608;2023-05-02T10:23:55;0.93;;;0.93;;
11924;SDS011;6022;48.768;18.608;2023-05-02T10:26:23;1.07;;;1.07;;
11924;SDS011;6022;48.768;18.608;2023-05-02T10:28:51;1.37;;;1.27;;
11924;SDS011;6022;48.768;18.608;2023-05-02T10:31:22;1.43;;;1.43;;
11924;SDS011;6022;48.768;18.608;2023-05-02T10:33:50;1.07;;;1.07;;
11924;SDS011;6022;48.768;18.608;2023-05-02T10:36:21;1.13;;;1.10;;
11924;SDS011;6022;48.768;18.608;2023-05-02T10:38:49;2.87;;;1.50;;
11924;SDS011;6022;48.768;18.608;2023-05-02T10:41:20;1.30;;;1.20;;
11924;SDS011;6022;48.768;18.608;2023-05-02T10:43:54;1.57;;;1.30;;
11924;SDS011;6022;48.768;18.608;2023-05-02T10:46:31;1.60;;;1.37;;
11924;SDS011;6022;48.768;18.608;2023-05-02T10:49:02;1.57;;;1.47;;
11924;SDS011;6022;48.768;18.608;2023-05-02T10:51:41;2.30;;;1.37;;
11924;SDS011;6022;48.768;18.608;2023-05-02T10:59:37;1.40;;;1.30;;
11924;SDS011;6022;48.768;18.608;2023-05-02T11:05:03;1.50;;;1.40;;
11924;SDS011;6022;48.768;18.608;2023-05-02T11:07:34;1.87;;;1.30;;
11924;SDS011;6022;48.768;18.608;2023-05-02T11:12:48;1.77;;;1.60;;
11924;SDS011;6022;48.768;18.608;2023-05-02T11:20:41;1.53;;;1.43;;
11924;SDS011;6022;48.768;18.608;2023-05-02T11:25:47;2.10;;;1.60;;
11924;SDS011;6022;48.768;18.608;2023-05-02T11:31:03;1.37;;;1.30;;
11924;SDS011;6022;48.768;18.608;2023-05-02T11:33:32;1.30;;;1.20;;
11924;SDS011;6022;48.768;18.608;2023-05-02T11:36:03;3.03;;;1.97;;
11924;SDS011;6022;48.768;18.608;2023-05-02T11:38:35;2.30;;;1.77;;
11924;SDS011;6022;48.768;18.608;2023-05-02T11:41:05;1.67;;;1.43;;
11924;SDS011;6022;48.768;18.608;2023-05-02T11:43:32;2.87;;;1.70;;
11924;SDS011;6022;48.768;18.608;2023-05-02T11:46:05;1.53;;;1.43;;
11924;SDS011;6022;48.768;18.608;2023-05-02T11:48:35;1.63;;;1.53;;
11924;SDS011;6022;48.768;18.608;2023-05-02T11:51:24;1.40;;;1.10;;
11924;SDS011;6022;48.768;18.608;2023-05-02T11:53:52;1.63;;;1.53;;
11924;SDS011;6022;48.768;18.608;2023-05-02T11:56:22;1.60;;;1.50;;
11924;SDS011;6022;48.768;18.608;2023-05-02T11:58:58;1.70;;;1.60;;
11924;SDS011;6022;48.768;18.608;2023-05-02T12:01:27;1.03;;;1.03;;
11924;SDS011;6022;48.768;18.608;2023-05-02T12:04:01;1.60;;;1.50;;
11924;SDS011;6022;48.768;18.608;2023-05-02T12:06:29;1.60;;;1.50;;
11924;SDS011;6022;48.768;18.608;2023-05-02T12:09:07;1.57;;;1.47;;
11924;SDS011;6022;48.768;18.608;2023-05-02T12:11:36;2.40;;;1.60;;
11924;SDS011;6022;48.768;18.608;2023-05-02T12:14:04;1.93;;;1.70;;
11924;SDS011;6022;48.768;18.608;2023-05-02T12:16:34;1.20;;;1.10;;
11924;SDS011;6022;48.768;18.608;2023-05-02T12:19:02;3.03;;;1.20;;
11924;SDS011;6022;48.768;18.608;2023-05-02T12:21:30;2.50;;;1.80;;
11924;SDS011;6022;48.768;18.608;2023-05-02T12:23:59;1.90;;;1.80;;
11924;SDS011;6022;48.768;18.608;2023-05-02T12:26:27;2.00;;;1.50;;
11924;SDS011;6022;48.768;18.608;2023-05-02T12:28:56;1.33;;;1.27;;
11924;SDS011;6022;48.768;18.608;2023-05-02T12:31:27;3.77;;;2.40;;
11924;SDS011;6022;48.768;18.608;2023-05-02T12:34:00;3.53;;;2.00;;
11924;SDS011;6022;48.768;18.608;2023-05-02T12:36:29;2.53;;;2.23;;
11924;SDS011;6022;48.768;18.608;2023-05-02T12:38:58;1.97;;;1.87;;
11924;SDS011;6022;48.768;18.608;2023-05-02T12:41:30;1.70;;;1.60;;
11924;SDS011;6022;48.768;18.608;2023-05-02T12:43:59;3.20;;;1.70;;
11924;SDS011;6022;48.768;18.608;2023-05-02T12:46:26;2.00;;;1.80;;
11924;SDS011;6022;48.768;18.608;2023-05-02T12:49:04;1.67;;;1.57;;
11924;SDS011;6022;48.768;18.608;2023-05-02T12:51:38;5.10;;;2.17;;
11924;SDS011;6022;48.768;18.608;2023-05-02T12:54:06;2.30;;;2.10;;
11924;SDS011;6022;48.768;18.608;2023-05-02T12:56:39;4.20;;;2.30;;
11924;SDS011;6022;48.768;18.608;2023-05-02T12:59:11;2.47;;;2.27;;
11924;SDS011;6022;48.768;18.608;2023-05-02T13:01:57;5.00;;;2.40;;
11924;SDS011;6022;48.768;18.608;2023-05-02T13:04:32;2.17;;;1.97;;
11924;SDS011;6022;48.768;18.608;2023-05-02T13:07:05;1.77;;;1.67;;
11924;SDS011;6022;48.768;18.608;2023-05-02T13:09:34;2.10;;;1.90;;
11924;SDS011;6022;48.768;18.608;2023-05-02T13:12:02;1.70;;;1.60;;
11924;SDS011;6022;48.768;18.608;2023-05-02T13:14:31;2.03;;;1.60;;
11924;SDS011;6022;48.768;18.608;2023-05-02T13:16:59;4.20;;;2.20;;
11924;SDS011;6022;48.768;18.608;2023-05-02T13:19:26;2.87;;;1.90;;
11924;SDS011;6022;48.768;18.608;2023-05-02T13:21:56;5.33;;;1.57;;
11924;SDS011;6022;48.768;18.608;2023-05-02T13:24:24;1.97;;;1.87;;
11924;SDS011;6022;48.768;18.608;2023-05-02T13:26:52;1.90;;;1.80;;
11924;SDS011;6022;48.768;18.608;2023-05-02T13:29:20;2.07;;;1.97;;
11924;SDS011;6022;48.768;18.608;2023-05-02T13:31:49;2.30;;;2.10;;
11924;SDS011;6022;48.768;18.608;2023-05-02T13:34:16;2.17;;;2.03;;
11924;SDS011;6022;48.768;18.608;2023-05-02T13:36:43;1.90;;;1.73;;
11924;SDS011;6022;48.768;18.608;2023-05-02T13:39:12;3.63;;;2.33;;
11924;SDS011;6022;48.768;18.608;2023-05-02T13:41:39;3.03;;;2.40;;
11924;SDS011;6022;48.768;18.608;2023-05-02T13:44:07;2.50;;;2.30;;
11924;SDS011;6022;48.768;18.608;2023-05-02T13:46:34;2.67;;;2.47;;
11924;SDS011;6022;48.768;18.608;2023-05-02T13:49:03;2.40;;;2.20;;
11924;SDS011;6022;48.768;18.608;2023-05-02T13:51:31;4.93;;;3.67;;
11924;SDS011;6022;48.768;18.608;2023-05-02T13:53:58;2.93;;;2.73;;
11924;SDS011;6022;48.768;18.608;2023-05-02T13:56:26;2.70;;;2.50;;
11924;SDS011;6022;48.768;18.608;2023-05-02T13:59:01;3.70;;;2.63;;
11924;SDS011;6022;48.768;18.608;2023-05-02T14:01:34;2.53;;;2.33;;
11924;SDS011;6022;48.768;18.608;2023-05-02T14:04:04;3.43;;;3.13;;
11924;SDS011;6022;48.768;18.608;2023-05-02T14:06:34;2.27;;;2.07;;
11924;SDS011;6022;48.768;18.608;2023-05-02T14:09:02;2.97;;;2.50;;
11924;SDS011;6022;48.768;18.608;2023-05-02T14:11:34;2.93;;;1.93;;
11924;SDS011;6022;48.768;18.608;2023-05-02T14:14:35;2.30;;;2.00;;
11924;SDS011;6022;48.768;18.608;2023-05-02T14:17:03;3.00;;;2.70;;
11924;SDS011;6022;48.768;18.608;2023-05-02T14:19:33;2.93;;;2.70;;
11924;SDS011;6022;48.768;18.608;2023-05-02T14:22:04;3.87;;;2.53;;
11924;SDS011;6022;48.768;18.608;2023-05-02T14:24:31;2.90;;;2.40;;
11924;SDS011;6022;48.768;18.608;2023-05-02T14:27:01;3.83;;;2.27;;
11924;SDS011;6022;48.768;18.608;2023-05-02T14:29:30;3.67;;;2.13;;
11924;SDS011;6022;48.768;18.608;2023-05-02T14:31:57;5.43;;;2.30;;
11924;SDS011;6022;48.768;18.608;2023-05-02T14:34:24;3.87;;;2.77;;
11924;SDS011;6022;48.768;18.608;2023-05-02T14:36:52;3.93;;;2.67;;
11924;SDS011;6022;48.768;18.608;2023-05-02T14:39:19;2.67;;;2.47;;
11924;SDS011;6022;48.768;18.608;2023-05-02T14:41:49;2.47;;;2.27;;
11924;SDS011;6022;48.768;18.608;2023-05-02T14:44:21;6.90;;;3.07;;
11924;SDS011;6022;48.768;18.608;2023-05-02T14:46:48;2.73;;;2.50;;
11924;SDS011;6022;48.768;18.608;2023-05-02T14:49:21;4.63;;;2.63;;
11924;SDS011;6022;48.768;18.608;2023-05-02T14:51:51;3.77;;;2.97;;
11924;SDS011;6022;48.768;18.608;2023-05-02T14:54:18;6.07;;;3.20;;
11924;SDS011;6022;48.768;18.608;2023-05-02T14:56:45;4.40;;;2.77;;
11924;SDS011;6022;48.768;18.608;2023-05-02T14:59:13;5.90;;;3.73;;
11924;SDS011;6022;48.768;18.608;2023-05-02T15:01:40;3.63;;;2.50;;
11924;SDS011;6022;48.768;18.608;2023-05-02T15:04:08;4.07;;;2.23;;
11924;SDS011;6022;48.768;18.608;2023-05-02T15:06:36;2.80;;;2.60;;
11924;SDS011;6022;48.768;18.608;2023-05-02T15:09:03;2.67;;;1.83;;
11924;SDS011;6022;48.768;18.608;2023-05-02T15:11:31;2.17;;;1.87;;
11924;SDS011;6022;48.768;18.608;2023-05-02T15:13:58;2.87;;;2.40;;
11924;SDS011;6022;48.768;18.608;2023-05-02T15:16:28;2.80;;;2.30;;
11924;SDS011;6022;48.768;18.608;2023-05-02T15:18:56;2.93;;;2.63;;
11924;SDS011;6022;48.768;18.608;2023-05-02T15:21:23;2.50;;;2.30;;
11924;SDS011;6022;48.768;18.608;2023-05-02T15:23:50;2.53;;;2.13;;
11924;SDS011;6022;48.768;18.608;2023-05-02T15:26:18;2.43;;;2.23;;
11924;SDS011;6022;48.768;18.608;2023-05-02T15:28:46;4.33;;;2.50;;
11924;SDS011;6022;48.768;18.608;2023-05-02T15:31:15;2.80;;;2.50;;
11924;SDS011;6022;48.768;18.608;2023-05-02T15:33:42;2.23;;;2.03;;
11924;SDS011;6022;48.768;18.608;2023-05-02T15:36:09;2.63;;;2.43;;
11924;SDS011;6022;48.768;18.608;2023-05-02T15:38:36;2.87;;;2.63;;
11924;SDS011;6022;48.768;18.608;2023-05-02T15:41:08;2.03;;;1.93;;
11924;SDS011;6022;48.768;18.608;2023-05-02T15:43:37;2.33;;;2.13;;
11924;SDS011;6022;48.768;18.608;2023-05-02T15:46:07;2.97;;;2.40;;
11924;SDS011;6022;48.768;18.608;2023-05-02T15:48:34;3.43;;;2.93;;
11924;SDS011;6022;48.768;18.608;2023-05-02T15:51:01;3.63;;;3.07;;
11924;SDS011;6022;48.768;18.608;2023-05-02T15:53:30;13.73;;;9.63;;